Time;durP1;ratioP1;P1;durP2;ratioP2;P2;SDS_P1;SDS_P2;PMS_P1;PMS_P2;Temp;Humidity;BMP_temperature;BMP_pressure;BME280_temperature;BME280_humidity;BME280_pressure;Samples;Min_cycle;Max_cycle;Signal;HPM_P1;HPM_P2
2022/05/04 00:00:14;;;;;;;5.55;3.13;;;13.60;99.90;;;;;;4148696;28;20044;-60
2022/05/04 00:02:15;;;;;;;6.38;3.28;;;13.60;99.90;;;;;;4155937;28;20060;-61
2022/05/04 00:04:16;;;;;;;13.88;3.85;;;13.60;99.90;;;;;;4152875;28;20033;-61
2022/05/04 00:06:16;;;;;;;7.22;2.90;;;13.60;99.90;;;;;;4155864;28;20038;-61
2022/05/04 00:08:17;;;;;;;6.13;3.35;;;13.60;99.90;;;;;;4155333;28;20079;-60
2022/05/04 00:10:18;;;;;;;10.23;3.75;;;13.60;99.90;;;;;;4157185;28;20512;-61
2022/05/04 00:12:18;;;;;;;9.23;3.80;;;13.60;99.90;;;;;;4155386;28;20038;-61
2022/05/04 00:14:19;;;;;;;6.65;2.80;;;13.60;99.90;;;;;;4159437;28;20053;-61
2022/05/04 00:16:19;;;;;;;7.07;2.88;;;13.60;99.90;;;;;;4152093;28;20428;-61
2022/05/04 00:18:20;;;;;;;11.00;3.45;;;13.60;99.90;;;;;;4149363;28;20428;-61
2022/05/04 00:20:21;;;;;;;7.15;3.33;;;13.60;99.90;;;;;;4157183;28;20044;-61
2022/05/04 00:22:22;;;;;;;5.38;2.80;;;13.70;99.90;;;;;;4155700;28;20113;-61
2022/05/04 00:24:23;;;;;;;6.95;2.95;;;13.70;99.90;;;;;;4159012;28;20033;-61
2022/05/04 00:26:23;;;;;;;7.65;2.97;;;13.70;99.90;;;;;;4155658;28;20050;-61
2022/05/04 00:28:24;;;;;;;11.57;3.65;;;13.70;99.90;;;;;;4156068;28;20041;-60
2022/05/04 00:30:25;;;;;;;6.68;3.58;;;13.70;99.90;;;;;;4158053;28;20099;-61
2022/05/04 00:32:26;;;;;;;6.40;3.22;;;13.70;99.90;;;;;;4158870;28;20037;-61
2022/05/04 00:34:27;;;;;;;11.13;3.57;;;13.70;99.90;;;;;;4156053;28;20060;-61
2022/05/04 00:36:27;;;;;;;6.88;3.15;;;13.70;99.90;;;;;;4155067;28;20049;-61
2022/05/04 00:38:28;;;;;;;8.27;3.55;;;13.70;99.90;;;;;;4153649;28;20095;-60
2022/05/04 00:40:29;;;;;;;7.60;3.92;;;13.70;99.90;;;;;;4152874;28;20475;-60
2022/05/04 00:42:30;;;;;;;8.55;3.65;;;13.60;99.90;;;;;;4152814;28;20626;-61
2022/05/04 00:44:30;;;;;;;9.00;3.85;;;13.70;99.90;;;;;;4148217;28;20114;-61
2022/05/04 00:46:31;;;;;;;8.43;3.40;;;13.60;99.90;;;;;;4158666;28;20476;-61
2022/05/04 00:48:32;;;;;;;8.35;3.03;;;13.60;99.90;;;;;;4154745;28;20534;-62
2022/05/04 00:50:32;;;;;;;8.02;3.40;;;13.60;99.90;;;;;;4158884;28;20435;-60
2022/05/04 00:52:34;;;;;;;6.68;3.17;;;13.60;99.90;;;;;;4157922;28;20037;-61
2022/05/04 00:54:35;;;;;;;9.57;3.42;;;13.60;99.90;;;;;;4160798;28;20045;-65
2022/05/04 00:56:36;;;;;;;6.72;3.33;;;13.60;99.90;;;;;;4156448;28;20469;-60
2022/05/04 00:58:56;;;;;;;10.07;3.42;;;13.60;99.90;;;;;;4154545;28;20043;-61
2022/05/04 01:01:00;;;;;;;9.25;3.28;;;13.60;99.90;;;;;;4152534;28;20073;-60
2022/05/04 01:03:00;;;;;;;8.90;3.70;;;13.60;99.90;;;;;;4155800;28;20033;-60
2022/05/04 01:05:01;;;;;;;9.05;3.63;;;13.60;99.90;;;;;;4159353;28;20041;-61
2022/05/04 01:07:02;;;;;;;7.10;3.67;;;13.60;99.90;;;;;;4149634;28;20038;-61
2022/05/04 01:09:03;;;;;;;7.35;3.47;;;13.50;99.90;;;;;;4156287;28;20038;-61
2022/05/04 01:11:04;;;;;;;10.52;4.30;;;13.60;99.90;;;;;;4158395;28;20448;-64
2022/05/04 01:13:05;;;;;;;9.85;3.72;;;13.40;99.90;;;;;;4151494;28;20095;-62
2022/05/04 01:15:07;;;;;;;7.13;3.60;;;13.30;99.90;;;;;;4157612;28;20427;-62
2022/05/04 01:17:08;;;;;;;6.97;3.80;;;13.40;99.90;;;;;;4154577;28;21323;-60
2022/05/04 01:19:09;;;;;;;6.30;3.40;;;13.40;99.90;;;;;;4159754;28;20117;-62
2022/05/04 01:21:10;;;;;;;6.72;3.20;;;13.40;99.90;;;;;;4160146;28;20046;-61
2022/05/04 01:23:11;;;;;;;7.30;3.67;;;13.30;99.90;;;;;;4153581;28;20371;-61
2022/05/04 01:25:12;;;;;;;9.32;3.80;;;13.30;99.90;;;;;;4157738;28;20463;-62
2022/05/04 01:27:13;;;;;;;7.65;3.83;;;13.30;99.90;;;;;;4153895;28;20030;-61
2022/05/04 01:29:14;;;;;;;9.60;3.50;;;13.30;99.90;;;;;;4147537;28;20050;-61
2022/05/04 01:31:15;;;;;;;6.93;3.20;;;13.30;99.90;;;;;;4154772;28;20489;-61
2022/05/04 01:33:15;;;;;;;9.55;3.97;;;13.30;99.90;;;;;;4157818;28;20044;-59
2022/05/04 01:35:16;;;;;;;8.45;3.55;;;13.30;99.90;;;;;;4156669;28;20125;-60
2022/05/04 01:37:16;;;;;;;11.50;4.35;;;13.30;99.90;;;;;;4158398;28;20041;-62
2022/05/04 01:39:17;;;;;;;8.93;3.72;;;13.30;99.90;;;;;;4158233;28;20500;-61
2022/05/04 01:43:36;;;;;;;8.60;3.83;;;13.20;99.90;;;;;;4156642;28;20029;-62
2022/05/04 01:45:37;;;;;;;9.00;3.92;;;13.20;99.90;;;;;;4160137;28;20443;-62
2022/05/04 01:47:38;;;;;;;7.20;3.95;;;13.20;99.90;;;;;;4155745;28;20477;-62
2022/05/04 01:49:38;;;;;;;9.40;4.03;;;13.20;99.90;;;;;;4155681;28;20472;-60
2022/05/04 01:51:39;;;;;;;11.57;4.03;;;13.10;99.90;;;;;;4157676;28;20029;-62
2022/05/04 01:53:41;;;;;;;10.18;4.30;;;13.10;99.90;;;;;;4160464;28;20036;-62
2022/05/04 01:55:42;;;;;;;9.23;4.60;;;13.10;99.90;;;;;;4156040;28;20041;-61
2022/05/04 01:57:42;;;;;;;12.65;4.20;;;13.10;99.90;;;;;;4155051;28;20022;-62
2022/05/04 01:59:43;;;;;;;8.75;3.55;;;13.00;99.90;;;;;;4157588;28;20048;-61
2022/05/04 02:01:43;;;;;;;9.25;4.20;;;13.00;99.90;;;;;;4159930;28;20036;-61
2022/05/04 02:03:45;;;;;;;6.43;3.78;;;13.00;99.90;;;;;;4156981;28;20061;-61
2022/05/04 02:05:45;;;;;;;12.00;4.50;;;13.00;99.90;;;;;;4157259;28;20026;-61
2022/05/04 02:07:46;;;;;;;14.90;4.63;;;12.90;99.90;;;;;;4157619;28;20091;-61
2022/05/04 02:09:46;;;;;;;8.18;3.65;;;12.90;99.90;;;;;;4157693;28;20032;-62
2022/05/04 02:11:47;;;;;;;15.73;4.82;;;12.80;99.90;;;;;;4158644;28;20029;-61
2022/05/04 02:13:48;;;;;;;10.57;4.15;;;12.80;99.90;;;;;;4157417;28;20025;-61
2022/05/04 02:15:49;;;;;;;6.78;4.00;;;12.70;99.90;;;;;;4154705;28;20034;-62
2022/05/04 02:17:49;;;;;;;11.93;4.85;;;12.70;99.90;;;;;;4156779;28;20412;-61
2022/05/04 02:19:50;;;;;;;7.90;3.88;;;12.70;99.90;;;;;;4158268;28;20451;-61
2022/05/04 02:21:50;;;;;;;9.65;4.20;;;12.70;99.90;;;;;;4154883;28;20025;-61
2022/05/04 02:23:51;;;;;;;7.43;3.88;;;12.70;99.90;;;;;;4159929;28;20037;-60
2022/05/04 02:25:52;;;;;;;7.75;3.70;;;12.70;99.90;;;;;;4159095;28;20029;-60
2022/05/04 02:27:52;;;;;;;10.20;3.95;;;12.60;99.90;;;;;;4157396;28;20435;-60
2022/05/04 02:29:53;;;;;;;8.43;4.50;;;12.60;99.90;;;;;;4158995;28;20033;-61
2022/05/04 02:31:56;;;;;;;9.48;4.40;;;12.50;99.90;;;;;;4157461;28;20045;-60
2022/05/04 02:33:56;;;;;;;9.57;4.40;;;12.50;99.90;;;;;;4158344;28;20095;-61
2022/05/04 02:38:16;;;;;;;9.88;4.78;;;12.40;99.90;;;;;;4154004;28;20030;-60
2022/05/04 02:40:16;;;;;;;11.25;4.53;;;12.40;99.90;;;;;;4155190;28;20472;-61
2022/05/04 02:42:17;;;;;;;10.52;4.50;;;12.30;99.90;;;;;;4158890;28;20057;-61
2022/05/04 02:44:18;;;;;;;14.43;4.80;;;12.30;99.90;;;;;;4157857;28;20036;-61
2022/05/04 02:46:20;;;;;;;13.98;4.43;;;12.30;99.90;;;;;;4155497;28;20040;-60
2022/05/04 02:48:21;;;;;;;11.38;4.40;;;12.30;99.90;;;;;;4152518;28;20121;-60
2022/05/04 02:50:22;;;;;;;9.88;4.28;;;12.30;99.90;;;;;;4155743;28;20049;-60
2022/05/04 02:52:22;;;;;;;7.75;4.30;;;12.30;99.90;;;;;;4156111;28;20045;-61
2022/05/04 02:54:23;;;;;;;12.75;4.43;;;12.30;99.90;;;;;;4154711;28;20050;-61
2022/05/04 02:56:23;;;;;;;12.75;4.57;;;12.30;99.90;;;;;;4155694;28;20033;-61
2022/05/04 02:58:24;;;;;;;9.77;4.32;;;12.30;99.90;;;;;;4155270;28;20045;-61
2022/05/04 03:00:25;;;;;;;9.18;4.18;;;12.40;99.90;;;;;;4156496;28;20037;-60
2022/05/04 03:02:29;;;;;;;11.60;4.57;;;12.30;99.90;;;;;;4149263;28;20080;-60
2022/05/04 03:04:29;;;;;;;9.15;4.28;;;12.40;99.90;;;;;;4154217;28;20044;-61
2022/05/04 03:06:30;;;;;;;8.05;4.40;;;12.30;99.90;;;;;;4157013;28;20460;-61
2022/05/04 03:08:30;;;;;;;10.68;4.22;;;12.30;99.90;;;;;;4154753;28;20357;-61
2022/05/04 03:11:54;;;;;;;10.90;4.70;;;12.30;99.90;;;;;;4151685;28;20034;-61
2022/05/04 03:12:51;;;;;;;10.52;3.92;;;12.30;99.90;;;;;;4147202;28;20056;-61
2022/05/04 03:14:53;;;;;;;9.65;3.83;;;12.20;99.90;;;;;;4156845;28;20109;-60
2022/05/04 03:16:54;;;;;;;8.73;4.10;;;12.20;99.90;;;;;;4153551;28;20046;-61
2022/05/04 03:18:54;;;;;;;12.57;4.18;;;12.20;99.90;;;;;;4149660;28;20067;-61
2022/05/04 03:20:55;;;;;;;7.10;3.85;;;12.20;99.90;;;;;;4153207;28;20535;-61
2022/05/04 03:22:55;;;;;;;10.13;4.05;;;12.10;99.90;;;;;;4151219;28;20041;-60
2022/05/04 03:24:56;;;;;;;7.80;4.15;;;12.10;99.90;;;;;;4152994;28;20087;-61
2022/05/04 03:26:57;;;;;;;7.55;3.88;;;12.10;99.90;;;;;;4149488;28;20046;-61
2022/05/04 03:28:57;;;;;;;8.35;3.97;;;12.10;99.90;;;;;;4154833;28;20033;-59
2022/05/04 03:30:58;;;;;;;7.00;3.55;;;12.10;99.90;;;;;;4152351;28;20053;-61
2022/05/04 03:32:58;;;;;;;10.57;4.28;;;12.20;99.90;;;;;;4152617;28;20033;-61
2022/05/04 03:34:59;;;;;;;10.50;4.10;;;12.10;99.90;;;;;;4151267;28;20029;-61
2022/05/04 03:37:00;;;;;;;9.50;3.45;;;12.10;99.90;;;;;;4153316;28;20041;-59
2022/05/04 03:39:01;;;;;;;9.77;3.35;;;12.10;99.90;;;;;;4158017;28;20026;-61
2022/05/04 03:41:02;;;;;;;9.75;4.40;;;12.10;99.90;;;;;;4160964;28;20049;-60
2022/05/04 03:43:02;;;;;;;7.38;3.72;;;12.10;99.90;;;;;;4158420;28;20041;-60
2022/05/04 03:45:03;;;;;;;10.57;4.18;;;12.00;99.90;;;;;;4159184;28;20095;-62
2022/05/04 03:47:04;;;;;;;7.40;3.90;;;12.10;99.90;;;;;;4158263;28;20037;-60
2022/05/04 03:49:05;;;;;;;9.60;4.18;;;12.10;99.90;;;;;;4157455;28;20045;-61
2022/05/04 03:51:05;;;;;;;10.77;4.63;;;12.00;99.90;;;;;;4156954;28;20037;-61
2022/05/04 03:53:06;;;;;;;9.10;4.45;;;12.00;99.90;;;;;;4160112;28;20029;-63
2022/05/04 03:55:07;;;;;;;10.15;3.90;;;12.00;99.90;;;;;;4157136;28;20033;-62
2022/05/04 03:57:07;;;;;;;8.80;4.15;;;12.00;99.90;;;;;;4160091;28;20034;-64
2022/05/04 03:59:09;;;;;;;8.07;4.30;;;12.00;99.90;;;;;;4159608;28;20045;-60
2022/05/04 04:01:10;;;;;;;10.52;4.30;;;12.00;99.90;;;;;;4155786;28;20040;-60
2022/05/04 04:03:10;;;;;;;10.10;4.55;;;12.00;99.90;;;;;;4151480;28;20030;-61
2022/05/04 04:05:12;;;;;;;6.80;4.00;;;11.90;99.90;;;;;;4156301;28;20447;-62
2022/05/04 04:07:13;;;;;;;7.70;3.92;;;11.90;99.90;;;;;;4155139;28;20052;-60
2022/05/04 04:09:13;;;;;;;8.23;4.07;;;11.90;99.90;;;;;;4159154;28;20065;-61
2022/05/04 04:11:14;;;;;;;6.45;3.50;;;11.90;99.90;;;;;;4156438;28;20096;-60
2022/05/04 04:13:15;;;;;;;10.40;4.35;;;11.90;99.90;;;;;;4158278;28;20036;-61
2022/05/04 04:15:16;;;;;;;8.57;4.03;;;11.90;99.90;;;;;;4156707;28;20038;-61
2022/05/04 04:17:16;;;;;;;7.03;3.97;;;11.90;99.90;;;;;;4154526;28;20512;-61
2022/05/04 04:19:17;;;;;;;15.45;4.20;;;11.90;99.90;;;;;;4155657;28;20044;-61
2022/05/04 04:23:37;;;;;;;11.43;4.18;;;11.90;99.90;;;;;;4154041;28;20033;-60
2022/05/04 04:25:39;;;;;;;9.13;4.28;;;11.80;99.90;;;;;;4154155;28;20057;-62
2022/05/04 04:27:40;;;;;;;9.02;4.68;;;11.80;99.90;;;;;;4155053;28;20438;-62
2022/05/04 04:29:40;;;;;;;9.88;4.43;;;11.80;99.90;;;;;;4157092;28;20033;-61
2022/05/04 04:31:41;;;;;;;13.15;4.72;;;11.80;99.90;;;;;;4156343;28;20544;-61
2022/05/04 04:33:42;;;;;;;11.85;4.60;;;11.80;99.90;;;;;;4157046;28;20408;-59
2022/05/04 04:35:43;;;;;;;8.07;4.25;;;11.80;99.90;;;;;;4157929;28;20113;-61
2022/05/04 04:37:43;;;;;;;8.93;4.43;;;11.80;99.90;;;;;;4156450;28;20037;-61
2022/05/04 04:39:44;;;;;;;13.15;4.90;;;11.80;99.90;;;;;;4156737;28;20115;-60
2022/05/04 04:41:45;;;;;;;11.15;4.45;;;11.80;99.90;;;;;;4155243;28;20132;-60
2022/05/04 04:43:45;;;;;;;9.38;4.45;;;11.80;99.90;;;;;;4157193;28;20061;-59
2022/05/04 04:45:52;;;;;;;8.55;4.00;;;11.80;99.90;;;;;;4152036;28;20041;-61
2022/05/04 04:47:53;;;;;;;10.25;4.47;;;11.80;99.90;;;;;;4155442;28;20562;-61
2022/05/04 04:49:57;;;;;;;6.63;4.22;;;11.80;99.90;;;;;;4157381;28;20035;-61
2022/05/04 04:51:58;;;;;;;14.65;4.13;;;11.80;99.90;;;;;;4155779;28;20108;-58
2022/05/04 04:53:58;;;;;;;10.55;4.80;;;11.80;99.90;;;;;;4158340;28;20099;-60
2022/05/04 04:55:59;;;;;;;10.73;4.45;;;11.80;99.90;;;;;;4157680;28;20025;-61
2022/05/04 04:58:00;;;;;;;10.88;4.57;;;11.90;99.90;;;;;;4157479;28;20387;-60
2022/05/04 05:00:02;;;;;;;9.60;4.50;;;11.90;99.90;;;;;;4153296;28;20048;-61
2022/05/04 05:02:03;;;;;;;8.20;4.15;;;11.90;99.90;;;;;;4153201;28;20037;-60
2022/05/04 05:04:04;;;;;;;10.07;4.75;;;11.90;99.90;;;;;;4153577;28;20069;-61
2022/05/04 05:06:04;;;;;;;9.35;4.38;;;12.00;99.90;;;;;;4154287;28;20044;-61
2022/05/04 05:08:05;;;;;;;7.20;4.15;;;11.90;99.90;;;;;;4157795;28;20388;-60
2022/05/04 05:10:06;;;;;;;8.70;4.45;;;12.00;99.90;;;;;;4158537;28;20041;-63
2022/05/04 05:12:07;;;;;;;7.75;4.00;;;12.00;99.90;;;;;;4157925;28;20037;-60
2022/05/04 05:16:27;;;;;;;16.55;5.25;;;12.00;99.90;;;;;;4155450;28;20033;-60
2022/05/04 05:18:28;;;;;;;11.07;5.38;;;12.00;99.90;;;;;;4161454;28;21171;-60
2022/05/04 05:20:30;;;;;;;9.02;4.53;;;12.00;99.90;;;;;;4156201;28;20042;-61
2022/05/04 05:22:31;;;;;;;8.93;4.50;;;12.00;99.90;;;;;;4155692;28;20041;-63
2022/05/04 05:24:32;;;;;;;7.07;3.90;;;12.10;99.90;;;;;;4156080;28;20051;-61
2022/05/04 05:26:33;;;;;;;12.43;4.40;;;12.10;99.90;;;;;;4154472;28;20041;-61
2022/05/04 05:28:34;;;;;;;10.10;5.13;;;12.10;99.90;;;;;;4155797;28;20041;-61
2022/05/04 05:30:34;;;;;;;8.35;4.22;;;12.20;99.90;;;;;;4157820;28;20046;-60
2022/05/04 05:32:35;;;;;;;10.70;4.97;;;12.20;99.90;;;;;;4156969;28;20049;-60
2022/05/04 05:34:35;;;;;;;7.30;4.70;;;12.20;99.90;;;;;;4158203;28;20036;-59
2022/05/04 05:36:36;;;;;;;7.90;4.63;;;12.20;99.90;;;;;;4155756;28;20029;-60
2022/05/04 05:38:37;;;;;;;9.80;4.90;;;12.30;99.90;;;;;;4154715;28;20068;-60
2022/05/04 05:40:37;;;;;;;8.98;4.75;;;12.40;99.90;;;;;;4155150;28;20076;-60
2022/05/04 05:42:38;;;;;;;9.05;4.40;;;12.40;99.90;;;;;;4156406;28;20041;-60
2022/05/04 05:44:39;;;;;;;8.63;4.60;;;12.50;99.90;;;;;;4155764;28;20038;-63
2022/05/04 05:46:39;;;;;;;11.70;4.97;;;12.50;99.90;;;;;;4156399;28;20098;-61
2022/05/04 05:48:40;;;;;;;11.75;4.85;;;12.50;99.90;;;;;;4155755;28;20037;-60
2022/05/04 05:50:40;;;;;;;11.80;4.95;;;12.50;99.90;;;;;;4157188;28;20128;-62
2022/05/04 05:52:41;;;;;;;8.10;4.82;;;12.50;99.90;;;;;;4155913;28;20117;-60
2022/05/04 05:54:42;;;;;;;8.43;4.70;;;12.60;99.90;;;;;;4157652;28;20115;-59
2022/05/04 05:56:42;;;;;;;11.70;4.90;;;12.60;99.90;;;;;;4155831;28;20804;-63
2022/05/04 05:58:43;;;;;;;9.30;5.15;;;12.70;99.90;;;;;;4155108;28;20049;-63
2022/05/04 06:00:43;;;;;;;9.60;5.28;;;12.70;99.90;;;;;;4156429;28;20068;-63
2022/05/04 06:02:45;;;;;;;14.43;5.80;;;12.80;99.90;;;;;;4156604;28;20087;-62
2022/05/04 06:04:46;;;;;;;15.40;6.10;;;12.80;99.90;;;;;;4156793;28;20152;-62
2022/05/04 06:06:46;;;;;;;15.00;5.85;;;12.80;99.90;;;;;;4154279;28;20044;-64
2022/05/04 06:08:47;;;;;;;11.40;5.55;;;12.90;99.90;;;;;;4157585;28;20037;-63
2022/05/04 06:10:48;;;;;;;12.20;5.00;;;12.90;99.90;;;;;;4155768;28;20073;-63
2022/05/04 06:12:48;;;;;;;9.38;4.50;;;12.90;99.90;;;;;;4153529;28;20045;-63
2022/05/04 06:14:49;;;;;;;11.20;5.50;;;13.00;99.90;;;;;;4153889;28;20037;-63
2022/05/04 06:16:50;;;;;;;11.38;4.85;;;13.00;99.90;;;;;;4156360;28;20034;-64
2022/05/04 06:18:51;;;;;;;13.43;5.88;;;13.10;99.90;;;;;;4153933;28;20088;-62
2022/05/04 06:20:51;;;;;;;12.88;5.63;;;13.10;99.90;;;;;;4156445;28;20037;-62
2022/05/04 06:22:52;;;;;;;10.68;5.25;;;13.20;99.90;;;;;;4156360;28;20034;-62
2022/05/04 06:24:53;;;;;;;14.57;6.07;;;13.30;99.90;;;;;;4155855;28;20037;-63
2022/05/04 06:26:54;;;;;;;13.18;5.57;;;13.50;99.90;;;;;;4154303;28;20395;-63
2022/05/04 06:28:54;;;;;;;15.43;6.53;;;13.80;99.90;;;;;;4155486;28;20033;-63
2022/05/04 06:35:33;;;;;;;14.98;5.63;;;14.60;99.90;;;;;;4151633;28;20096;-62
2022/05/04 06:37:34;;;;;;;11.73;5.05;;;14.80;99.90;;;;;;4156785;28;20523;-64
2022/05/04 06:39:34;;;;;;;16.00;5.75;;;15.20;99.90;;;;;;4155243;28;20054;-63
2022/05/04 06:41:36;;;;;;;11.55;5.20;;;15.40;99.90;;;;;;4151308;28;20121;-63
2022/05/04 06:43:36;;;;;;;6.85;4.22;;;15.70;99.90;;;;;;4151117;28;20037;-63
2022/05/04 06:45:37;;;;;;;12.52;4.55;;;15.90;99.90;;;;;;4154320;28;20125;-63
2022/05/04 06:47:37;;;;;;;16.98;5.38;;;16.20;99.00;;;;;;4153713;28;20037;-64
2022/05/04 06:49:39;;;;;;;11.15;4.63;;;16.50;97.40;;;;;;4154030;28;20043;-63
2022/05/04 06:51:39;;;;;;;8.68;4.40;;;16.70;97.90;;;;;;4149931;28;20018;-63
2022/05/04 06:53:40;;;;;;;11.52;4.55;;;16.90;98.10;;;;;;4155545;28;20030;-65
2022/05/04 06:55:41;;;;;;;9.43;4.32;;;17.10;97.80;;;;;;4153984;28;20041;-64
2022/05/04 06:57:41;;;;;;;8.90;3.80;;;17.40;97.00;;;;;;4155808;28;20708;-64
2022/05/04 06:59:42;;;;;;;9.48;4.05;;;17.50;96.20;;;;;;4154844;28;20029;-64
2022/05/04 07:01:42;;;;;;;16.98;4.93;;;17.70;96.60;;;;;;4155620;28;20056;-64
2022/05/04 07:03:43;;;;;;;14.65;4.82;;;17.80;94.40;;;;;;4155704;28;20057;-64
2022/05/04 07:05:44;;;;;;;8.82;3.65;;;17.80;94.10;;;;;;4153428;28;20038;-64
2022/05/04 07:07:44;;;;;;;12.90;4.10;;;17.90;94.70;;;;;;4154109;28;20045;-64
2022/05/04 07:09:45;;;;;;;9.15;4.63;;;17.90;94.00;;;;;;4154412;28;20041;-64
2022/05/04 07:11:45;;;;;;;9.63;3.67;;;18.00;93.90;;;;;;4155818;28;20516;-64
2022/05/04 07:13:46;;;;;;;13.48;4.75;;;18.10;93.90;;;;;;4156297;28;20488;-64
2022/05/04 07:15:46;;;;;;;10.60;4.30;;;18.10;93.20;;;;;;4158300;28;20389;-64
2022/05/04 07:17:47;;;;;;;9.43;3.85;;;18.20;93.90;;;;;;4157568;28;20500;-66
2022/05/04 07:19:48;;;;;;;9.73;4.70;;;18.20;92.70;;;;;;4158338;28;20029;-64
2022/05/04 07:21:48;;;;;;;8.80;4.30;;;18.20;93.70;;;;;;4159538;28;20041;-64
2022/05/04 07:23:49;;;;;;;10.95;4.35;;;18.30;93.30;;;;;;4156788;28;20029;-65
2022/05/04 07:25:49;;;;;;;12.27;4.03;;;18.20;93.30;;;;;;4156514;28;20037;-64
2022/05/04 07:27:50;;;;;;;9.40;3.83;;;18.30;92.20;;;;;;4158528;28;20077;-64
2022/05/04 07:29:51;;;;;;;9.57;4.10;;;18.30;92.30;;;;;;4158517;28;20516;-64
2022/05/04 07:31:51;;;;;;;10.65;3.97;;;18.40;92.40;;;;;;4157690;28;20064;-64
2022/05/04 07:33:52;;;;;;;9.27;4.10;;;18.40;92.10;;;;;;4157310;28;20124;-64
2022/05/04 07:35:52;;;;;;;11.00;4.60;;;18.50;92.30;;;;;;4156302;28;20047;-64
2022/05/04 07:37:53;;;;;;;8.95;3.60;;;17.80;86.30;;;;;;4158298;28;20029;-64
2022/05/04 07:42:22;;;;;;;11.95;4.72;;;18.20;91.80;;;;;;4158111;28;20037;-64
2022/05/04 07:44:23;;;;;;;10.00;4.43;;;18.30;92.70;;;;;;4157899;28;20451;-64
2022/05/04 07:46:23;;;;;;;8.70;4.07;;;18.30;91.60;;;;;;4156992;28;20072;-64
2022/05/04 07:48:24;;;;;;;8.77;3.97;;;18.40;91.80;;;;;;4159570;28;20037;-64
2022/05/04 07:50:25;;;;;;;9.15;4.55;;;18.50;92.10;;;;;;4155605;28;20044;-64
2022/05/04 07:52:27;;;;;;;8.40;4.30;;;18.50;91.90;;;;;;4158372;28;20129;-64
2022/05/04 07:54:31;;;;;;;9.55;4.55;;;18.60;91.70;;;;;;4157330;28;20412;-64
2022/05/04 07:56:31;;;;;;;10.95;4.75;;;18.70;92.10;;;;;;4157909;28;20036;-64
2022/05/04 07:58:32;;;;;;;17.02;5.68;;;18.70;91.90;;;;;;4157535;28;20496;-64
2022/05/04 08:05:11;;;;;;;11.60;4.80;;;18.80;91.10;;;;;;4156316;28;20034;-64
2022/05/04 08:07:12;;;;;;;8.55;4.32;;;18.90;91.60;;;;;;4157190;28;20045;-64
2022/05/04 08:09:13;;;;;;;7.93;4.10;;;18.90;91.00;;;;;;4158526;28;20134;-64
2022/05/04 08:11:13;;;;;;;9.35;4.38;;;19.00;91.40;;;;;;4155739;28;20050;-64
2022/05/04 08:13:14;;;;;;;9.60;4.75;;;19.10;91.40;;;;;;4156400;28;20038;-64
2022/05/04 08:15:14;;;;;;;11.23;4.55;;;19.10;91.10;;;;;;4158039;28;20045;-64
2022/05/04 08:17:16;;;;;;;6.85;3.65;;;19.20;91.10;;;;;;4157020;28;20049;-64
2022/05/04 08:19:17;;;;;;;11.43;4.85;;;19.20;88.20;;;;;;4156976;28;20037;-64
2022/05/04 08:21:17;;;;;;;8.45;4.10;;;19.20;89.60;;;;;;4156607;28;20052;-64
2022/05/04 08:23:18;;;;;;;11.65;4.25;;;19.10;90.90;;;;;;4157067;28;20072;-64
2022/05/04 08:25:19;;;;;;;7.95;4.05;;;19.20;90.40;;;;;;4155985;28;20079;-64
2022/05/04 08:27:20;;;;;;;9.23;4.07;;;19.30;89.40;;;;;;4155901;28;20041;-64
2022/05/04 08:29:20;;;;;;;9.05;4.20;;;19.30;90.00;;;;;;4156393;28;20145;-64
2022/05/04 08:31:24;;;;;;;9.27;3.92;;;19.20;83.90;;;;;;4156719;28;20114;-63
2022/05/04 08:33:25;;;;;;;11.20;4.53;;;19.10;88.40;;;;;;4151616;28;20065;-64
2022/05/04 08:35:26;;;;;;;7.70;3.72;;;19.10;89.90;;;;;;4155717;28;20033;-64
2022/05/04 08:37:29;;;;;;;12.00;4.38;;;19.20;90.30;;;;;;4155777;28;20092;-64
2022/05/04 08:39:30;;;;;;;9.25;3.97;;;19.20;90.00;;;;;;4157061;28;20057;-64
2022/05/04 08:41:33;;;;;;;11.23;4.45;;;19.20;90.60;;;;;;4156510;28;20539;-64
2022/05/04 08:43:34;;;;;;;8.65;3.97;;;19.30;89.70;;;;;;4158345;28;20033;-64
2022/05/04 08:45:37;;;;;;;15.82;3.85;;;19.30;90.00;;;;;;4154917;28;20121;-64
2022/05/04 08:47:42;;;;;;;8.70;3.67;;;19.40;89.90;;;;;;4156277;28;20061;-64
2022/05/04 08:49:44;;;;;;;8.38;3.75;;;19.40;88.70;;;;;;4156925;28;20378;-64
2022/05/04 08:51:45;;;;;;;11.75;4.18;;;19.50;88.30;;;;;;4156549;28;20120;-64
2022/05/04 08:53:48;;;;;;;9.18;4.00;;;19.50;89.00;;;;;;4151110;28;20033;-64
2022/05/04 08:55:49;;;;;;;13.68;3.72;;;19.60;90.30;;;;;;4154619;28;20038;-64
2022/05/04 08:57:50;;;;;;;6.78;3.78;;;19.60;87.40;;;;;;4157734;28;20041;-64
2022/05/04 08:59:51;;;;;;;9.30;3.92;;;19.60;87.10;;;;;;4157710;28;20040;-64
2022/05/04 09:01:51;;;;;;;8.85;4.00;;;19.70;89.30;;;;;;4157923;28;20389;-64
2022/05/04 09:03:52;;;;;;;6.72;3.65;;;19.70;89.00;;;;;;4156331;28;20461;-65
2022/05/04 09:05:54;;;;;;;10.77;4.00;;;19.80;88.30;;;;;;4156643;28;20029;-65
2022/05/04 09:07:56;;;;;;;6.45;3.63;;;19.80;89.00;;;;;;4157841;28;20064;-64
2022/05/04 09:09:57;;;;;;;8.80;3.53;;;19.80;89.80;;;;;;4158942;28;20488;-64
2022/05/04 09:12:02;;;;;;;12.68;4.60;;;19.90;87.10;;;;;;4155985;28;20068;-64
2022/05/04 09:14:11;;;;;;;9.38;3.90;;;19.80;88.30;;;;;;4156204;28;20060;-64
2022/05/04 09:16:27;;;;;;;11.32;3.85;;;19.90;88.90;;;;;;4155905;28;20511;-65
2022/05/04 09:18:34;;;;;;;9.10;3.88;;;19.90;86.80;;;;;;4156668;28;20443;-64
2022/05/04 09:20:52;;;;;;;8.45;3.20;;;19.90;88.10;;;;;;4156357;28;20041;-63
2022/05/04 09:22:52;;;;;;;8.30;3.60;;;19.80;82.40;;;;;;4156963;28;20059;-64
2022/05/04 09:24:56;;;;;;;7.20;3.22;;;19.90;87.60;;;;;;4155509;28;20053;-64
2022/05/04 09:26:58;;;;;;;7.90;3.55;;;20.00;87.10;;;;;;4153989;28;20059;-64
2022/05/04 09:29:00;;;;;;;8.48;3.58;;;20.00;86.60;;;;;;4158466;28;20542;-64
2022/05/04 09:31:05;;;;;;;;;;;20.10;86.60;;;;;;4156792;28;20061;-64
2022/05/04 09:33:10;;;;;;;12.20;3.53;;;20.20;89.00;;;;;;4155937;28;19951;-64
2022/05/04 09:35:15;;;;;;;12.82;4.30;;;19.80;79.70;;;;;;4151205;28;20427;-64
2022/05/04 09:44:55;;;;;;;7.68;3.90;;;19.60;86.00;;;;;;4155558;28;20046;-64
2022/05/04 09:46:55;;;;;;;5.95;3.47;;;19.60;86.50;;;;;;4154527;28;20691;-64
2022/05/04 09:48:57;;;;;;;9.82;4.32;;;19.70;86.80;;;;;;4157781;28;20076;-64
2022/05/04 09:51:05;;;;;;;11.98;4.63;;;19.60;85.10;;;;;;4155455;28;20041;-64
2022/05/04 09:53:06;;;;;;;9.05;4.70;;;19.70;86.20;;;;;;4156427;28;20045;-64
2022/05/04 09:55:17;;;;;;;6.30;3.78;;;19.70;83.60;;;;;;4154049;28;20592;-63
2022/05/04 09:57:20;;;;;;;6.97;3.75;;;19.70;84.40;;;;;;4156270;28;20053;-64
2022/05/04 09:59:23;;;;;;;9.75;4.55;;;19.80;86.70;;;;;;4157993;28;20488;-64
2022/05/04 10:01:23;;;;;;;8.50;4.07;;;19.80;85.40;;;;;;4156427;28;20047;-64
2022/05/04 10:03:24;;;;;;;13.30;5.10;;;19.90;85.30;;;;;;4157726;28;20069;-64
2022/05/04 10:05:25;;;;;;;8.45;4.35;;;19.90;85.20;;;;;;4156083;28;20033;-64
2022/05/04 10:07:27;;;;;;;11.23;5.20;;;19.90;84.70;;;;;;4157203;28;20045;-64
2022/05/04 10:09:27;;;;;;;10.07;4.15;;;19.90;84.60;;;;;;4156311;28;20071;-64
2022/05/04 10:11:30;;;;;;;8.73;3.47;;;19.90;86.80;;;;;;4154364;28;20046;-64
2022/05/04 10:13:30;;;;;;;10.63;4.53;;;19.90;85.20;;;;;;4156002;28;20041;-64
2022/05/04 10:15:34;;;;;;;8.45;3.83;;;19.90;84.40;;;;;;4155246;28;20095;-64
2022/05/04 10:17:52;;;;;;;9.85;4.28;;;20.00;85.90;;;;;;4157236;28;20037;-64
2022/05/04 10:20:16;;;;;;;7.05;3.40;;;19.90;84.80;;;;;;4156220;28;20496;-64
2022/05/04 10:22:27;;;;;;;13.35;5.57;;;20.00;84.10;;;;;;4154838;28;20045;-66
2022/05/04 10:24:35;;;;;;;6.97;3.40;;;19.90;84.40;;;;;;4156131;28;20056;-64
2022/05/04 10:26:38;;;;;;;11.75;3.53;;;19.90;85.20;;;;;;4155330;28;20053;-64
2022/05/04 10:28:42;;;;;;;8.57;4.10;;;20.00;85.10;;;;;;4156753;28;20041;-64
2022/05/04 10:30:55;;;;;;;8.60;3.72;;;20.00;83.90;;;;;;4155013;28;20574;-67
2022/05/04 10:33:06;;;;;;;7.43;3.80;;;20.10;80.90;;;;;;4156475;28;20038;-64
2022/05/04 10:35:34;;;;;;;6.82;3.38;;;20.00;83.10;;;;;;4151797;28;20026;-66
2022/05/04 10:38:02;;;;;;;4.75;2.75;;;20.10;81.70;;;;;;4153575;28;20574;-63
2022/05/04 10:40:10;;;;;;;11.95;4.47;;;20.10;77.40;;;;;;4153356;28;20523;-65
2022/05/04 10:42:54;;;;;;;7.82;3.83;;;20.00;78.90;;;;;;4155752;28;20586;-63
2022/05/04 10:44:56;;;;;;;7.32;3.90;;;19.90;79.40;;;;;;4154078;28;20044;-64
2022/05/04 10:46:59;;;;;;;8.65;4.07;;;19.80;81.90;;;;;;4153681;28;20083;-63
2022/05/04 10:49:04;;;;;;;;;;;19.90;82.30;;;;;;4155531;28;20029;-63
2022/05/04 10:51:19;;;;;;;12.07;4.20;;;19.70;76.10;;;;;;4153182;28;19967;-63
2022/05/04 10:53:25;;;;;;;8.40;3.83;;;19.80;80.90;;;;;;4152028;28;20029;-64
2022/05/04 10:55:39;;;;;;;6.55;3.38;;;19.80;80.70;;;;;;4155547;28;20041;-63
2022/05/04 10:57:42;;;;;;;10.57;4.35;;;19.70;77.10;;;;;;4155569;28;20037;-64
2022/05/04 10:59:48;;;;;;;6.25;3.40;;;19.70;74.10;;;;;;4154614;28;20545;-65